createdAt,value
2023-04-07T00:01:27.643Z,0.90
2023-04-07T00:03:56.939Z,1.67
2023-04-07T00:06:26.630Z,2.70
2023-04-07T00:08:55.969Z,2.15
2023-04-07T00:11:24.978Z,2.33
2023-04-07T00:13:54.146Z,3.58
2023-04-07T00:16:23.492Z,1.73
2023-04-07T00:18:53.977Z,3.08
2023-04-07T00:21:23.017Z,1.50
2023-04-07T00:23:52.970Z,2.50
2023-04-07T00:26:22.000Z,1.92
2023-04-07T00:28:51.317Z,1.55
2023-04-07T00:31:20.451Z,1.33
2023-04-07T00:33:49.845Z,0.60
2023-04-07T00:36:20.380Z,2.00
2023-04-07T00:38:49.373Z,2.15
2023-04-07T00:41:18.940Z,1.35
2023-04-07T00:43:47.992Z,3.40
2023-04-07T00:46:17.437Z,0.60
2023-04-07T00:48:46.998Z,2.10
2023-04-07T00:51:17.335Z,1.67
2023-04-07T00:53:47.734Z,2.10
2023-04-07T00:56:17.035Z,1.23
2023-04-07T00:58:46.054Z,0.20
2023-04-07T01:01:20.816Z,2.08
2023-04-07T01:03:59.758Z,1.60
2023-04-07T01:06:34.921Z,2.03
2023-04-07T01:09:09.284Z,1.20
2023-04-07T01:11:44.339Z,1.55
2023-04-07T01:14:20.355Z,1.58
2023-04-07T01:16:59.409Z,1.80
2023-04-07T01:19:35.760Z,2.55
2023-04-07T01:22:09.569Z,1.52
2023-04-07T01:25:30.833Z,2.20
2023-04-07T01:28:17.444Z,2.17
2023-04-07T01:30:49.446Z,1.40
2023-04-07T01:33:19.807Z,1.17
2023-04-07T01:35:51.629Z,2.88
2023-04-07T01:38:22.538Z,2.45
2023-04-07T01:40:52.368Z,2.83
2023-04-07T01:43:22.972Z,1.83
2023-04-07T01:45:55.194Z,1.17
2023-04-07T01:50:54.273Z,2.08
2023-04-07T01:53:24.728Z,1.90
2023-04-07T01:55:55.069Z,1.02
2023-04-07T01:58:24.317Z,0.93
2023-04-07T02:00:55.032Z,1.60
2023-04-07T02:03:33.087Z,1.63
2023-04-07T02:06:08.820Z,2.83
2023-04-07T02:08:40.781Z,1.15
2023-04-07T02:11:12.576Z,3.45
2023-04-07T02:13:43.922Z,1.85
2023-04-07T02:16:37.089Z,1.15
2023-04-07T02:19:07.010Z,2.42
2023-04-07T02:21:36.920Z,1.92
2023-04-07T02:24:07.986Z,1.75
2023-04-07T02:26:37.564Z,1.58
2023-04-07T02:29:07.200Z,1.55
2023-04-07T02:31:37.751Z,1.65
2023-04-07T02:34:06.843Z,1.55
2023-04-07T02:36:35.802Z,0.73
2023-04-07T02:39:05.216Z,1.23
2023-04-07T02:41:34.225Z,1.17
2023-04-07T02:44:03.315Z,1.05
2023-04-07T02:46:32.335Z,1.05
2023-04-07T02:49:03.104Z,0.60
2023-04-07T02:51:33.349Z,0.70
2023-04-07T02:54:02.579Z,0.90
2023-04-07T02:56:31.702Z,0.80
2023-04-07T02:59:00.815Z,1.13
2023-04-07T03:01:30.899Z,0.73
2023-04-07T03:04:00.224Z,1.13
2023-04-07T03:06:31.873Z,1.20
2023-04-07T03:09:09.562Z,1.40
2023-04-07T03:11:41.879Z,3.60
2023-04-07T03:14:14.488Z,2.03
2023-04-07T03:16:49.692Z,3.38
2023-04-07T03:19:19.219Z,2.72
2023-04-07T03:21:52.694Z,1.20
2023-04-07T03:24:21.774Z,0.30
2023-04-07T03:26:51.582Z,1.00
2023-04-07T03:29:29.472Z,0.60
2023-04-07T03:31:58.641Z,1.55
2023-04-07T03:34:27.629Z,1.30
2023-04-07T03:37:00.029Z,3.22
2023-04-07T03:39:31.324Z,1.48
2023-04-07T03:42:03.022Z,1.75
2023-04-07T03:44:34.626Z,1.08
2023-04-07T03:47:03.837Z,1.25
2023-04-07T03:49:32.927Z,0.68
2023-04-07T03:52:06.685Z,1.20
2023-04-07T03:54:36.886Z,2.28
2023-04-07T03:57:06.072Z,1.73
2023-04-07T03:59:40.212Z,2.20
2023-04-07T04:02:09.682Z,1.83
2023-04-07T04:04:39.608Z,1.73
2023-04-07T04:07:12.049Z,1.15
2023-04-07T04:09:52.983Z,0.83
2023-04-07T04:12:22.093Z,0.70
2023-04-07T04:15:02.510Z,1.17
2023-04-07T04:17:33.078Z,1.52
2023-04-07T04:20:02.337Z,1.67
2023-04-07T04:22:44.254Z,1.17
2023-04-07T04:25:14.244Z,1.27
2023-04-07T04:27:48.407Z,0.90
2023-04-07T04:30:23.816Z,1.35
2023-04-07T04:35:34.581Z,1.52
2023-04-07T04:38:12.627Z,1.02
2023-04-07T04:40:46.676Z,1.50
2023-04-07T04:43:19.004Z,1.55
2023-04-07T04:45:48.885Z,5.10
2023-04-07T04:48:20.725Z,2.80
2023-04-07T04:50:50.038Z,5.65
2023-04-07T04:53:20.590Z,3.45
2023-04-07T04:55:56.628Z,4.38
2023-04-07T04:58:36.966Z,2.85
2023-04-07T05:01:06.542Z,1.83
2023-04-07T05:03:44.099Z,2.60
2023-04-07T05:06:21.809Z,2.42
2023-04-07T05:08:54.987Z,4.57
2023-04-07T05:11:31.554Z,2.45
2023-04-07T05:14:00.584Z,4.28
2023-04-07T05:16:29.797Z,3.13
2023-04-07T05:18:59.016Z,2.13
2023-04-07T05:21:29.821Z,4.40
2023-04-07T05:24:04.990Z,2.30
2023-04-07T05:26:36.118Z,1.20
2023-04-07T05:29:07.141Z,2.40
2023-04-07T05:31:37.642Z,2.80
2023-04-07T05:34:11.356Z,3.78
2023-04-07T05:36:46.860Z,2.03
2023-04-07T05:39:17.597Z,2.92
2023-04-07T05:41:47.900Z,3.70
2023-04-07T05:44:17.531Z,3.15
2023-04-07T05:46:47.445Z,1.83
2023-04-07T05:49:19.924Z,1.98
2023-04-07T05:51:55.052Z,1.80
2023-04-07T05:54:26.242Z,3.33
2023-04-07T05:56:56.593Z,1.70
2023-04-07T05:59:26.749Z,2.65
2023-04-07T06:01:56.020Z,3.53
2023-04-07T06:04:25.543Z,1.98
2023-04-07T06:06:55.602Z,2.92
2023-04-07T06:09:26.261Z,1.48
2023-04-07T06:11:55.280Z,2.38
2023-04-07T06:14:24.459Z,3.10
2023-04-07T06:16:53.528Z,5.80
2023-04-07T06:19:22.627Z,6.85
2023-04-07T06:21:51.838Z,4.00
2023-04-07T06:24:22.886Z,3.30
2023-04-07T06:26:53.992Z,1.10
2023-04-07T06:29:23.471Z,1.13
2023-04-07T06:31:52.843Z,1.95
2023-04-07T06:34:21.954Z,2.47
2023-04-07T06:36:51.247Z,1.58
2023-04-07T06:39:20.418Z,3.50
2023-04-07T06:41:49.504Z,1.73
2023-04-07T06:44:20.058Z,2.08
2023-04-07T06:46:50.694Z,2.08
2023-04-07T06:49:19.767Z,2.10
2023-04-07T06:51:48.947Z,1.98
2023-04-07T06:54:18.230Z,3.88
2023-04-07T06:56:47.231Z,2.28
2023-04-07T06:59:16.414Z,1.48
2023-04-07T07:01:47.169Z,1.65
2023-04-07T07:04:16.837Z,0.98
2023-04-07T07:06:46.048Z,1.23
2023-04-07T07:09:15.094Z,1.58
2023-04-07T07:11:44.163Z,0.70
2023-04-07T07:14:13.280Z,0.63
2023-04-07T07:16:42.586Z,0.45
2023-04-07T07:19:13.119Z,1.80
2023-04-07T07:21:42.336Z,1.23
2023-04-07T07:24:11.328Z,1.85
2023-04-07T07:26:43.467Z,0.50
2023-04-07T07:29:13.206Z,2.03
2023-04-07T07:31:47.096Z,0.90
2023-04-07T07:34:17.660Z,2.20
2023-04-07T07:36:46.805Z,1.15
2023-04-07T07:39:16.012Z,0.70
2023-04-07T07:41:45.572Z,0.75
2023-04-07T07:44:14.725Z,0.77
2023-04-07T07:46:43.860Z,0.47
2023-04-07T07:49:13.058Z,1.13
2023-04-07T07:51:43.771Z,1.38
2023-04-07T07:54:12.811Z,1.55
2023-04-07T07:56:41.895Z,1.27
2023-04-07T07:59:10.898Z,0.90
2023-04-07T08:01:40.004Z,1.15
2023-04-07T08:04:09.212Z,0.70
2023-04-07T08:06:38.376Z,0.47
2023-04-07T08:09:08.930Z,0.85
2023-04-07T08:11:38.005Z,1.55
2023-04-07T08:14:08.644Z,0.90
2023-04-07T08:16:39.249Z,0.82
2023-04-07T08:19:08.597Z,0.40
2023-04-07T08:21:37.659Z,0.70
2023-04-07T08:24:08.822Z,1.17
2023-04-07T08:26:37.823Z,0.65
2023-04-07T08:29:06.824Z,0.70
2023-04-07T08:31:36.113Z,0.95
2023-04-07T08:34:05.260Z,0.50
2023-04-07T08:36:34.374Z,0.38
2023-04-07T08:39:05.906Z,0.88
2023-04-07T08:41:39.485Z,2.15
2023-04-07T08:44:09.697Z,0.98
2023-04-07T08:46:41.308Z,0.68
2023-04-07T08:49:14.490Z,1.48
2023-04-07T08:54:19.172Z,0.75
2023-04-07T08:56:49.947Z,1.48
2023-04-07T08:59:19.094Z,1.42
2023-04-07T09:01:49.063Z,0.75
2023-04-07T09:04:19.208Z,0.28
2023-04-07T09:06:48.383Z,0.55
2023-04-07T09:09:17.446Z,0.88
2023-04-07T09:11:46.579Z,0.77
2023-04-07T09:14:18.908Z,0.93
2023-04-07T09:16:48.932Z,1.15
2023-04-07T09:19:18.090Z,0.40
2023-04-07T09:21:51.519Z,1.45
2023-04-07T09:24:25.374Z,0.43
2023-04-07T09:27:11.828Z,1.35
2023-04-07T09:29:44.328Z,1.30
2023-04-07T09:32:14.208Z,1.45
2023-04-07T09:34:43.578Z,1.10
2023-04-07T09:37:24.249Z,0.10
2023-04-07T09:39:54.955Z,1.92
2023-04-07T09:42:24.094Z,0.85
2023-04-07T09:44:54.852Z,1.08
2023-04-07T09:47:29.461Z,1.13
2023-04-07T09:49:59.769Z,1.23
2023-04-07T09:52:53.284Z,1.27
2023-04-07T09:55:23.799Z,1.92
2023-04-07T09:57:55.574Z,0.65
2023-04-07T10:00:27.180Z,2.20
2023-04-07T10:02:58.350Z,3.80
2023-04-07T10:05:29.274Z,1.67
2023-04-07T10:07:58.804Z,2.22
2023-04-07T10:10:28.984Z,2.03
2023-04-07T10:12:59.754Z,1.83
2023-04-07T10:15:31.958Z,1.67
2023-04-07T10:18:02.187Z,0.93
2023-04-07T10:20:31.755Z,0.45
2023-04-07T10:23:10.775Z,1.67
2023-04-07T10:25:41.977Z,0.57
2023-04-07T10:28:13.067Z,0.77
2023-04-07T10:30:45.669Z,0.77
2023-04-07T10:33:14.722Z,0.45
2023-04-07T10:36:06.214Z,0.57
2023-04-07T10:38:35.728Z,0.82
2023-04-07T10:41:34.139Z,1.85
2023-04-07T10:44:07.551Z,0.40
2023-04-07T10:47:08.140Z,1.63
2023-04-07T10:49:38.226Z,0.35
2023-04-07T10:52:26.242Z,1.42
2023-04-07T10:55:32.067Z,0.70
2023-04-07T10:58:21.335Z,1.52
2023-04-07T11:01:22.996Z,1.35
2023-04-07T11:03:58.847Z,0.95
2023-04-07T11:06:28.799Z,0.43
2023-04-07T11:08:57.988Z,1.35
2023-04-07T11:11:43.177Z,0.98
2023-04-07T11:14:12.337Z,0.90
2023-04-07T11:16:46.126Z,1.90
2023-04-07T11:19:16.578Z,1.55
2023-04-07T11:21:45.872Z,0.57
2023-04-07T11:24:37.935Z,1.23
2023-04-07T11:27:07.602Z,1.45
2023-04-07T11:29:36.802Z,1.65
2023-04-07T11:32:06.683Z,0.75
2023-04-07T11:34:38.294Z,1.40
2023-04-07T11:37:21.560Z,1.08
2023-04-07T11:39:54.315Z,0.55
2023-04-07T11:42:34.051Z,1.00
2023-04-07T11:45:03.284Z,1.05
2023-04-07T11:47:39.689Z,1.13
2023-04-07T11:50:13.138Z,0.30
2023-04-07T11:52:44.273Z,0.82
2023-04-07T11:55:22.463Z,1.30
2023-04-07T11:57:52.807Z,1.25
2023-04-07T12:00:22.407Z,1.02
2023-04-07T12:02:51.716Z,1.25
2023-04-07T12:05:22.592Z,0.88
2023-04-07T12:07:55.793Z,0.47
2023-04-07T12:12:58.171Z,1.15
2023-04-07T12:15:28.628Z,0.90
2023-04-07T12:17:57.713Z,0.98
2023-04-07T12:20:28.878Z,0.98
2023-04-07T12:22:58.215Z,1.52
2023-04-07T12:25:27.759Z,1.30
2023-04-07T12:27:56.842Z,2.42
2023-04-07T12:30:25.986Z,0.40
2023-04-07T12:32:55.070Z,1.50
2023-04-07T12:35:24.271Z,0.98
2023-04-07T12:37:55.514Z,1.15
2023-04-07T12:40:24.795Z,0.55
2023-04-07T12:42:53.817Z,1.80
2023-04-07T12:45:23.069Z,1.13
2023-04-07T12:47:52.418Z,0.73
2023-04-07T12:50:21.517Z,2.15
2023-04-07T12:52:50.722Z,0.68
2023-04-07T12:55:21.622Z,1.08
2023-04-07T12:57:50.688Z,0.65
2023-04-07T13:00:19.838Z,1.70
2023-04-07T13:02:49.335Z,2.20
2023-04-07T13:05:18.902Z,1.30
2023-04-07T13:07:49.702Z,0.75
2023-04-07T13:10:19.107Z,0.90
2023-04-07T13:12:50.072Z,0.60
2023-04-07T13:15:19.529Z,1.05
2023-04-07T13:17:48.867Z,1.45
2023-04-07T13:20:20.701Z,0.50
2023-04-07T13:23:02.913Z,0.85
2023-04-07T13:25:36.705Z,1.08
2023-04-07T13:28:07.520Z,0.45
2023-04-07T13:30:36.678Z,0.60
2023-04-07T13:33:05.885Z,0.98
2023-04-07T13:35:36.185Z,0.40
2023-04-07T13:38:05.890Z,0.60
2023-04-07T13:40:34.937Z,0.82
2023-04-07T13:43:04.370Z,0.73
2023-04-07T13:45:35.029Z,1.98
2023-04-07T13:48:04.251Z,1.63
2023-04-07T13:50:33.448Z,1.13
2023-04-07T13:53:02.602Z,1.23
2023-04-07T13:55:31.954Z,2.65
2023-04-07T13:58:01.044Z,1.83
2023-04-07T14:00:30.202Z,2.08
2023-04-07T14:03:00.868Z,2.22
2023-04-07T14:05:30.164Z,3.67
2023-04-07T14:07:59.331Z,5.72
2023-04-07T14:10:29.563Z,7.80
2023-04-07T14:12:58.648Z,13.98
2023-04-07T14:15:27.986Z,9.68
2023-04-07T14:17:57.026Z,16.52
2023-04-07T14:20:27.947Z,10.77
2023-04-07T14:22:56.994Z,3.45
2023-04-07T14:25:26.404Z,16.77
2023-04-07T14:27:55.562Z,4.72
2023-04-07T14:30:24.902Z,1.75
2023-04-07T14:32:54.085Z,0.70
2023-04-07T14:35:23.472Z,1.83
2023-04-07T14:37:55.727Z,1.92
2023-04-07T14:40:24.833Z,3.45
2023-04-07T14:43:07.044Z,2.55
2023-04-07T14:45:37.188Z,3.08
2023-04-07T14:48:07.066Z,2.03
2023-04-07T14:50:36.521Z,4.32
2023-04-07T14:53:07.104Z,0.95
2023-04-07T14:55:36.477Z,2.28
2023-04-07T14:58:05.636Z,4.88
2023-04-07T15:00:34.750Z,1.45
2023-04-07T15:03:04.044Z,1.70
2023-04-07T15:05:33.334Z,1.27
2023-04-07T15:08:03.627Z,2.83
2023-04-07T15:10:35.853Z,1.92
2023-04-07T15:13:05.046Z,1.70
2023-04-07T15:15:34.184Z,1.50
2023-04-07T15:18:04.276Z,1.40
2023-04-07T15:20:33.490Z,0.98
2023-04-07T15:23:02.635Z,1.38
2023-04-07T15:25:31.833Z,2.58
2023-04-07T15:28:02.373Z,1.50
2023-04-07T15:30:34.649Z,0.77
2023-04-07T15:33:05.815Z,2.08
2023-04-07T15:35:34.957Z,0.68
2023-04-07T15:38:04.059Z,0.52
2023-04-07T15:40:33.044Z,0.43
2023-04-07T15:43:03.967Z,0.77
2023-04-07T15:45:33.044Z,0.70
2023-04-07T15:48:02.186Z,1.60
2023-04-07T15:50:31.983Z,1.17
2023-04-07T15:53:01.100Z,1.75
2023-04-07T15:55:30.427Z,0.63
2023-04-07T15:57:59.529Z,1.65
2023-04-07T16:00:31.346Z,0.47
2023-04-07T16:03:00.841Z,0.85
2023-04-07T16:05:30.141Z,0.75
2023-04-07T16:07:59.672Z,0.63
2023-04-07T16:10:28.771Z,0.63
2023-04-07T16:12:57.948Z,1.20
2023-04-07T16:15:39.897Z,1.15
2023-04-07T16:18:11.798Z,0.50
2023-04-07T16:20:41.017Z,1.10
2023-04-07T16:23:10.955Z,1.63
2023-04-07T16:25:40.212Z,1.58
2023-04-07T16:28:09.352Z,2.33
2023-04-07T16:30:40.355Z,0.52
2023-04-07T16:33:09.477Z,0.52
2023-04-07T16:35:38.825Z,1.58
2023-04-07T16:38:08.026Z,0.60
2023-04-07T16:40:37.285Z,0.88
2023-04-07T16:43:06.389Z,1.10
2023-04-07T16:45:35.681Z,1.55
2023-04-07T16:48:06.517Z,1.17
2023-04-07T16:50:35.788Z,0.85
2023-04-07T16:53:04.843Z,2.88
2023-04-07T16:55:37.504Z,2.05
2023-04-07T16:58:06.536Z,1.50
2023-04-07T17:00:35.743Z,0.95
2023-04-07T17:03:06.680Z,0.88
2023-04-07T17:05:35.931Z,0.95
2023-04-07T17:08:05.243Z,1.77
2023-04-07T17:10:34.453Z,0.65
2023-04-07T17:13:03.535Z,1.65
2023-04-07T17:15:32.693Z,1.42
2023-04-07T17:18:01.925Z,2.08
2023-04-07T17:20:32.541Z,2.72
2023-04-07T17:23:01.629Z,1.83
2023-04-07T17:25:30.797Z,2.25
2023-04-07T17:27:59.816Z,3.53
2023-04-07T17:30:28.989Z,2.42
2023-04-07T17:32:58.118Z,2.08
2023-04-07T17:35:27.296Z,3.05
2023-04-07T17:37:57.955Z,2.63
2023-04-07T17:40:27.079Z,2.88
2023-04-07T17:42:56.315Z,1.42
2023-04-07T17:45:25.970Z,2.33
2023-04-07T17:47:55.629Z,3.47
2023-04-07T17:50:24.781Z,1.73
2023-04-07T17:52:54.135Z,1.98
2023-04-07T17:55:24.706Z,3.25
2023-04-07T17:57:53.927Z,2.13
2023-04-07T18:00:24.066Z,1.33
2023-04-07T18:02:53.412Z,2.13
2023-04-07T18:05:24.192Z,2.90
2023-04-07T18:07:53.542Z,1.17
2023-04-07T18:10:24.320Z,1.00
2023-04-07T18:12:53.678Z,0.77
2023-04-07T18:15:22.802Z,0.82
2023-04-07T18:17:53.374Z,1.17
2023-04-07T18:20:22.724Z,3.65
2023-04-07T18:22:52.477Z,5.93
2023-04-07T18:25:22.127Z,2.42
2023-04-07T18:27:53.636Z,1.58
2023-04-07T18:30:22.838Z,1.98
2023-04-07T18:32:52.134Z,0.95
2023-04-07T18:35:21.422Z,0.77
2023-04-07T18:37:50.463Z,1.58
2023-04-07T18:40:19.615Z,2.85
2023-04-07T18:42:48.747Z,0.82
2023-04-07T18:45:19.444Z,3.08
2023-04-07T18:47:48.685Z,3.15
2023-04-07T18:50:18.421Z,2.75
2023-04-07T18:52:47.700Z,3.90
2023-04-07T18:55:16.962Z,1.42
2023-04-07T18:57:46.454Z,2.78
2023-04-07T19:00:15.820Z,3.58
2023-04-07T19:02:46.555Z,4.85
2023-04-07T19:05:15.831Z,2.75
2023-04-07T19:07:44.994Z,2.35
2023-04-07T19:10:14.145Z,3.85
2023-04-07T19:12:43.298Z,3.15
2023-04-07T19:15:14.439Z,2.47
2023-04-07T19:17:46.079Z,1.13
2023-04-07T19:20:15.222Z,1.50
2023-04-07T19:22:44.344Z,1.00
2023-04-07T19:25:13.510Z,1.40
2023-04-07T19:27:42.728Z,0.95
2023-04-07T19:30:12.882Z,1.70
2023-04-07T19:32:42.018Z,2.20
2023-04-07T19:35:13.145Z,2.28
2023-04-07T19:37:42.292Z,5.53
2023-04-07T19:40:12.217Z,2.60
2023-04-07T19:42:42.983Z,4.72
2023-04-07T19:45:12.492Z,4.95
2023-04-07T19:47:41.718Z,5.35
2023-04-07T19:50:14.598Z,6.20
2023-04-07T19:52:45.625Z,5.03
2023-04-07T19:55:26.309Z,2.70
2023-04-07T19:57:55.618Z,2.45
2023-04-07T20:00:24.741Z,2.90
2023-04-07T20:02:54.286Z,1.40
2023-04-07T20:05:25.063Z,2.38
2023-04-07T20:07:54.198Z,3.25
2023-04-07T20:10:23.124Z,2.25
2023-04-07T20:12:52.380Z,3.97
2023-04-07T20:15:22.129Z,10.43
2023-04-07T20:17:51.633Z,7.70
2023-04-07T20:20:25.082Z,5.05
2023-04-07T20:22:56.487Z,4.25
2023-04-07T20:25:25.725Z,5.13
2023-04-07T20:27:54.999Z,2.67
2023-04-07T20:30:24.078Z,1.70
2023-04-07T20:32:53.432Z,1.65
2023-04-07T20:35:22.745Z,1.33
2023-04-07T20:37:51.970Z,1.83
2023-04-07T20:40:22.577Z,1.48
2023-04-07T20:42:52.128Z,1.67
2023-04-07T20:45:22.631Z,2.28
2023-04-07T20:47:51.645Z,2.72
2023-04-07T20:50:21.293Z,1.92
2023-04-07T20:52:50.400Z,3.05
2023-04-07T20:55:21.958Z,1.73
2023-04-07T20:57:52.152Z,2.85
2023-04-07T21:00:21.816Z,3.17
2023-04-07T21:02:51.684Z,1.73
2023-04-07T21:05:21.132Z,2.40
2023-04-07T21:07:50.352Z,2.00
2023-04-07T21:10:19.554Z,2.60
2023-04-07T21:12:50.144Z,1.85
2023-04-07T21:15:19.592Z,2.58
2023-04-07T21:17:48.962Z,2.55
2023-04-07T21:20:18.289Z,3.08
2023-04-07T21:22:47.640Z,2.67
2023-04-07T21:25:16.632Z,1.77
2023-04-07T21:27:45.720Z,2.15
2023-04-07T21:30:16.964Z,0.93
2023-04-07T21:32:47.108Z,1.23
2023-04-07T21:35:16.238Z,2.05
2023-04-07T21:37:45.329Z,2.22
2023-04-07T21:40:15.671Z,3.30
2023-04-07T21:42:44.788Z,1.75
2023-04-07T21:45:14.039Z,3.25
2023-04-07T21:47:44.692Z,1.77
2023-04-07T21:50:14.289Z,3.85
2023-04-07T21:52:43.393Z,1.98
2023-04-07T21:55:12.862Z,1.40
2023-04-07T21:57:42.017Z,4.13
2023-04-07T22:00:12.271Z,3.47
2023-04-07T22:02:45.756Z,2.45
2023-04-07T22:05:15.189Z,2.40
2023-04-07T22:07:45.730Z,3.63
2023-04-07T22:10:14.889Z,2.53
2023-04-07T22:12:44.054Z,1.73
2023-04-07T22:15:14.352Z,4.05
2023-04-07T22:17:44.988Z,2.20
2023-04-07T22:20:14.373Z,2.58
2023-04-07T22:22:44.224Z,1.50
2023-04-07T22:25:13.240Z,2.20
2023-04-07T22:27:42.417Z,1.15
2023-04-07T22:30:11.712Z,1.83
2023-04-07T22:32:41.764Z,1.23
2023-04-07T22:35:12.431Z,1.45
2023-04-07T22:37:41.459Z,2.22
2023-04-07T22:40:11.840Z,2.40
2023-04-07T22:42:41.594Z,2.40
2023-04-07T22:45:11.286Z,0.90
2023-04-07T22:47:41.147Z,2.10
2023-04-07T22:50:13.005Z,3.40
2023-04-07T22:52:42.162Z,1.58
2023-04-07T22:55:11.823Z,1.20
2023-04-07T22:57:41.753Z,1.02
2023-04-07T23:00:11.884Z,1.75
2023-04-07T23:02:41.134Z,1.40
2023-04-07T23:05:11.934Z,1.23
2023-04-07T23:07:41.141Z,1.80
2023-04-07T23:10:11.178Z,2.03
2023-04-07T23:12:41.550Z,2.00
2023-04-07T23:15:11.406Z,1.05
2023-04-07T23:17:40.661Z,0.95
2023-04-07T23:20:12.386Z,0.88
2023-04-07T23:22:41.480Z,1.02
2023-04-07T23:25:11.038Z,3.50
2023-04-07T23:27:40.230Z,4.03
2023-04-07T23:30:10.677Z,4.00
2023-04-07T23:32:39.753Z,1.55
2023-04-07T23:35:09.481Z,1.80
2023-04-07T23:37:40.263Z,2.50
2023-04-07T23:40:11.691Z,4.85
2023-04-07T23:42:41.370Z,3.97
2023-04-07T23:45:11.050Z,1.88
2023-04-07T23:47:40.432Z,2.20
2023-04-07T23:50:10.660Z,0.63
2023-04-07T23:52:41.222Z,1.63
2023-04-07T23:55:11.203Z,1.33
2023-04-07T23:57:41.449Z,0.70
